Time;durP1;ratioP1;P1;durP2;ratioP2;P2;SDS_P1;SDS_P2;PMS_P1;PMS_P2;Temp;Humidity;BMP_temperature;BMP_pressure;BME280_temperature;BME280_humidity;BME280_pressure;Samples;Min_cycle;Max_cycle;Signal;HPM_P1;HPM_P2
2023/04/01 00:00:07;;;;;;;;;;;;;;;7.27;84.95;98381.61;134395;1299;22430;-92
2023/04/01 00:03:12;;;;;;;;;;;;;;;7.28;85.08;98383.16;134342;1299;23344;-91
2023/04/01 00:06:14;;;;;;;;;;;;;;;7.29;85.22;98381.17;134193;1303;22416;-93
2023/04/01 00:09:15;;;;;;;;;;;;;;;7.31;85.24;98377.86;134416;1296;22522;-93
2023/04/01 00:12:15;;;;;;;;;;;;;;;7.32;85.22;98378.92;134524;1297;22423;-89
2023/04/01 00:15:16;;;;;;;;;;;;;;;7.35;85.27;98375.27;134415;1304;22455;-93
2023/04/01 00:18:17;;;;;;;;;;;;;;;7.36;85.25;98371.91;134408;1302;22458;-92
2023/04/01 00:21:18;;;;;;;;;;;;;;;7.36;85.29;98370.05;134276;1296;22467;-93
2023/04/01 00:24:19;;;;;;;;;;;;;;;7.36;85.35;98366.10;134342;1299;22430;-93
2023/04/01 00:27:43;;;;;;;;;;;;;;;7.36;85.46;98370.00;134411;1297;22526;-94
2023/04/01 00:30:44;;;;;;;;;;;;;;;7.36;85.39;98372.27;134307;1298;22495;-91
2023/04/01 00:33:45;;;;;;;;;;;;;;;7.36;85.55;98375.40;134206;1296;22572;-92
2023/04/01 00:36:48;;;;;;;;;;;;;;;7.36;85.57;98370.17;134103;1300;22490;-91
2023/04/01 00:39:49;;;;;;;;;;;;;;;7.36;85.69;98367.77;134467;1295;23262;-93
2023/04/01 00:42:50;;;;;;;;;;;;;;;7.36;85.65;98371.95;134452;1296;22445;-93
2023/04/01 00:45:50;;;;;;;;;;;;;;;7.35;85.65;98367.80;134478;1296;22465;-93
2023/04/01 00:48:55;;;;;;;;;;;;;;;7.36;85.76;98367.40;134435;1301;22445;-90
2023/04/01 00:52:03;;;;;;;;;;;;;;;7.37;85.85;98364.61;134298;1298;22587;-93
2023/04/01 00:55:14;;;;;;;;;;;;;;;7.37;85.76;98366.84;134335;1298;22430;-93
2023/04/01 00:58:27;;;;;;;;;;;;;;;7.37;85.78;98366.39;134501;1297;22428;-92
2023/04/01 01:01:29;;;;;;;;;;;;;;;7.37;85.91;98370.36;134553;1297;22448;-85
2023/04/01 01:04:42;;;;;;;;;;;;;;;7.37;85.85;98373.90;134309;1298;22425;-93
2023/04/01 01:08:04;;;;;;;;;;;;;;;7.37;85.88;98369.02;134368;1303;22450;-91
2023/04/01 01:11:08;;;;;;;;;;;;;;;7.37;86.08;98373.17;134342;1297;22429;-92
2023/04/01 01:14:26;;;;;;;;;;;;;;;7.37;85.94;98369.36;134469;1297;22432;-88
2023/04/01 01:17:36;;;;;;;;;;;;;;;7.37;86.14;98366.27;134310;1296;22449;-92
2023/04/01 01:20:57;;;;;;;;;;;;;;;7.40;86.23;98367.59;134409;1296;22472;-91
2023/04/01 01:24:16;;;;;;;;;;;;;;;7.40;86.27;98362.05;134469;1296;22458;-93
2023/04/01 01:27:27;;;;;;;;;;;;;;;7.42;86.21;98362.73;134401;1298;22479;-93
2023/04/01 01:30:51;;;;;;;;;;;;;;;7.43;86.22;98362.58;134463;1297;22425;-90
2023/04/01 01:34:15;;;;;;;;;;;;;;;7.44;86.20;98364.39;134389;1297;23194;-90
2023/04/01 01:37:38;;;;;;;;;;;;;;;7.46;86.30;98371.83;134210;1298;22535;-92
2023/04/01 01:40:42;;;;;;;;;;;;;;;7.48;86.21;98368.40;134320;1290;23150;-86
2023/04/01 01:43:50;;;;;;;;;;;;;;;7.49;86.37;98367.81;134231;1297;22481;-91
2023/04/01 01:47:22;;;;;;;;;;;;;;;;;;;;;
2023/04/01 01:50:42;;;;;;;;;;;;;;;7.53;86.42;98368.45;134337;1298;22535;-90
2023/04/01 01:53:47;;;;;;;;;;;;;;;7.53;86.44;98367.04;134270;1297;22463;-92
2023/04/01 01:57:21;;;;;;;;;;;;;;;;;;;;;
2023/04/01 02:00:29;;;;;;;;;;;;;;;7.52;86.43;98360.40;134174;1298;22457;-90
2023/04/01 02:03:36;;;;;;;;;;;;;;;7.52;86.50;98359.95;134093;1300;22446;-90
2023/04/01 02:07:03;;;;;;;;;;;;;;;7.51;86.45;98360.02;134355;1299;22454;-88
2023/04/01 02:10:06;;;;;;;;;;;;;;;7.51;86.54;98362.33;134054;1299;22457;-89
2023/04/01 02:13:18;;;;;;;;;;;;;;;7.50;86.67;98360.50;134155;1298;22504;-90
2023/04/01 02:16:23;;;;;;;;;;;;;;;7.50;86.75;98357.66;134200;1301;22430;-89
2023/04/01 02:19:26;;;;;;;;;;;;;;;7.51;86.82;98354.09;134221;1298;22508;-90
2023/04/01 02:22:35;;;;;;;;;;;;;;;7.51;86.84;98350.40;134231;1288;22455;-90
2023/04/01 02:25:37;;;;;;;;;;;;;;;7.51;86.81;98348.28;134359;1295;22434;-89
2023/04/01 02:29:43;;;;;;;;;;;;;;;7.50;86.83;98348.41;134076;1298;22419;-90
2023/04/01 02:32:37;;;;;;;;;;;;;;;7.48;86.92;98344.27;130090;1303;5371195;-86
2023/04/01 02:36:46;;;;;;;;;;;;;;;7.48;87.02;98344.73;134336;1297;22428;-88
2023/04/01 02:39:45;;;;;;;;;;;;;;;;;;;;;
2023/04/01 02:43:22;;;;;;;;;;;;;;;;;;;;;
2023/04/01 02:46:53;;;;;;;;;;;;;;;;;;;;;
2023/04/01 02:50:02;;;;;;;;;;;;;;;7.54;87.25;98356.34;134343;1297;22459;-84
2023/04/01 02:53:06;;;;;;;;;;;;;;;7.55;87.39;98355.05;134159;1297;22463;-88
2023/04/01 02:56:06;;;;;;;;;;;;;;;7.57;87.36;98353.77;134173;1295;22421;-87
2023/04/01 02:59:07;;;;;;;;;;;;;;;7.61;87.60;98353.00;134351;1298;22487;-86
2023/04/01 03:02:56;;;;;;;;;;;;;;;7.63;87.66;98355.98;134356;1296;22425;-88
2023/04/01 03:06:02;;;;;;;;;;;;;;;;;;;;;
2023/04/01 03:09:08;;;;;;;;;;;;;;;7.68;87.64;98358.33;134335;1296;22484;-88
2023/04/01 03:12:22;;;;;;;;;;;;;;;7.71;87.63;98357.66;134093;1298;22440;-90
2023/04/01 03:15:26;;;;;;;;;;;;;;;7.73;87.60;98362.15;134141;1298;22441;-90
2023/04/01 03:19:03;;;;;;;;;;;;;;;;;;;;;
2023/04/01 03:22:47;;;;;;;;;;;;;;;;;;;;;
2023/04/01 03:26:08;;;;;;;;;;;;;;;7.79;87.70;98368.59;134349;1297;22488;-90
2023/04/01 03:29:23;;;;;;;;;;;;;;;7.79;87.69;98368.94;134115;1298;24637;-89
2023/04/01 03:32:27;;;;;;;;;;;;;;;7.76;87.66;98371.16;134130;1299;22447;-89
2023/04/01 03:35:27;;;;;;;;;;;;;;;7.74;87.77;98370.81;134396;1295;22448;-89
2023/04/01 03:38:32;;;;;;;;;;;;;;;7.72;87.89;98369.13;134345;1297;22437;-88
2023/04/01 03:41:38;;;;;;;;;;;;;;;7.70;88.03;98369.90;134162;1298;22502;-89
2023/04/01 03:44:41;;;;;;;;;;;;;;;7.69;87.99;98374.23;134196;1298;22471;-89
2023/04/01 03:47:47;;;;;;;;;;;;;;;7.69;88.07;98370.88;134219;1297;23259;-89
2023/04/01 03:51:14;;;;;;;;;;;;;;;7.69;88.09;98371.30;134396;1296;22441;-90
2023/04/01 03:54:19;;;;;;;;;;;;;;;7.69;88.18;98374.42;134086;1295;22461;-90
2023/04/01 03:57:20;;;;;;;;;;;;;;;7.69;88.13;98375.25;134125;1297;23214;-90
2023/04/01 04:00:26;;;;;;;;;;;;;;;7.69;88.26;98379.64;134022;1298;23179;-89
2023/04/01 04:03:27;;;;;;;;;;;;;;;7.69;88.32;98378.45;134176;1297;22427;-91
2023/04/01 04:06:37;;;;;;;;;;;;;;;7.68;88.24;98381.69;134162;1295;22428;-86
2023/04/01 04:09:38;;;;;;;;;;;;;;;7.68;88.40;98385.23;134369;1296;22441;-89
2023/04/01 04:12:40;;;;;;;;;;;;;;;7.68;88.42;98386.96;134185;1296;22504;-88
2023/04/01 04:15:41;;;;;;;;;;;;;;;7.70;88.54;98390.35;134170;1298;23258;-87
2023/04/01 04:18:47;;;;;;;;;;;;;;;7.69;88.66;98384.23;134356;1296;22531;-87
2023/04/01 04:21:48;;;;;;;;;;;;;;;7.70;88.70;98386.41;134350;1298;22602;-85
2023/04/01 04:24:49;;;;;;;;;;;;;;;7.69;88.83;98391.13;134103;1301;22441;-86
2023/04/01 04:27:55;;;;;;;;;;;;;;;7.68;89.01;98391.20;134173;1297;22459;-86
2023/04/01 04:31:04;;;;;;;;;;;;;;;7.68;89.07;98391.27;134380;1296;22519;-87
2023/04/01 04:34:06;;;;;;;;;;;;;;;7.68;89.16;98391.39;134158;1297;23587;-86
2023/04/01 04:37:08;;;;;;;;;;;;;;;7.68;89.25;98392.85;134176;1298;22516;-87
2023/04/01 04:40:10;;;;;;;;;;;;;;;7.68;89.23;98394.20;134145;1297;22471;-87
2023/04/01 04:43:12;;;;;;;;;;;;;;;7.68;89.37;98395.95;134135;1297;22458;-88
2023/04/01 04:46:14;;;;;;;;;;;;;;;7.67;89.46;98393.61;134034;1298;22445;-87
2023/04/01 04:49:14;;;;;;;;;;;;;;;7.67;89.56;98395.09;134092;1298;22442;-86
2023/04/01 04:52:18;;;;;;;;;;;;;;;7.66;89.79;98396.02;134131;1297;22425;-85
2023/04/01 04:55:19;;;;;;;;;;;;;;;7.66;89.86;98396.95;134062;1298;22578;-87
2023/04/01 04:58:41;;;;;;;;;;;;;;;7.64;90.13;98397.09;134047;1298;22481;-86
2023/04/01 05:02:04;;;;;;;;;;;;;;;7.64;90.24;98397.09;134146;1297;22421;-86
2023/04/01 05:05:05;;;;;;;;;;;;;;;7.64;90.34;98395.23;134030;1298;23066;-86
2023/04/01 05:08:06;;;;;;;;;;;;;;;7.63;90.48;98394.23;134143;1297;22467;-86
2023/04/01 05:11:09;;;;;;;;;;;;;;;7.63;90.56;98398.46;134055;1298;22460;-86
2023/04/01 05:14:16;;;;;;;;;;;;;;;7.62;90.80;98397.88;134114;1298;23270;-86
2023/04/01 05:17:24;;;;;;;;;;;;;;;7.62;91.09;98397.56;133907;1300;23276;-86
2023/04/01 05:20:25;;;;;;;;;;;;;;;7.61;91.07;98396.21;134094;1297;22471;-86
2023/04/01 05:23:26;;;;;;;;;;;;;;;7.62;91.17;98399.17;134059;1299;22554;-85
2023/04/01 05:26:33;;;;;;;;;;;;;;;7.62;91.30;98401.58;134124;1298;22454;-83
2023/04/01 05:29:36;;;;;;;;;;;;;;;7.62;91.54;98404.83;134094;1298;23103;-87
2023/04/01 05:32:39;;;;;;;;;;;;;;;7.64;91.61;98403.84;134061;1298;23091;-85
2023/04/01 05:35:43;;;;;;;;;;;;;;;7.66;91.96;98403.61;134042;1291;22456;-85
2023/04/01 05:38:45;;;;;;;;;;;;;;;7.68;91.89;98399.65;134079;1299;22767;-84
2023/04/01 05:41:47;;;;;;;;;;;;;;;7.70;92.11;98402.71;133993;1301;22420;-86
2023/04/01 05:44:47;;;;;;;;;;;;;;;7.73;92.36;98402.08;134094;1298;22458;-85
2023/04/01 05:48:07;;;;;;;;;;;;;;;7.74;92.72;98403.80;134313;1296;22416;-86
2023/04/01 05:51:18;;;;;;;;;;;;;;;7.76;92.60;98406.08;134126;1295;22461;-86
2023/04/01 05:54:28;;;;;;;;;;;;;;;7.78;92.94;98405.27;134100;1298;22823;-86
2023/04/01 05:57:29;;;;;;;;;;;;;;;7.79;92.89;98406.15;134151;1298;22434;-86
2023/04/01 06:00:30;;;;;;;;;;;;;;;7.82;92.83;98403.70;134249;1296;22462;-86
2023/04/01 06:03:37;;;;;;;;;;;;;;;7.83;92.80;98405.38;134344;1296;23127;-86
2023/04/01 06:06:51;;;;;;;;;;;;;;;7.83;93.04;98406.92;134134;1296;22466;-86
2023/04/01 06:10:09;;;;;;;;;;;;;;;7.83;92.94;98410.10;134139;1296;22462;-83
2023/04/01 06:13:10;;;;;;;;;;;;;;;7.84;93.06;98411.36;134221;1295;22441;-84
2023/04/01 06:16:30;;;;;;;;;;;;;;;7.86;93.23;98414.90;134190;1297;22431;-82
2023/04/01 06:19:50;;;;;;;;;;;;;;;7.90;93.43;98417.66;134259;1297;22466;-83
2023/04/01 06:23:12;;;;;;;;;;;;;;;7.94;93.62;98417.00;134101;1300;22424;-81
2023/04/01 06:26:13;;;;;;;;;;;;;;;7.98;93.80;98423.09;134149;1297;22479;-80
2023/04/01 06:29:25;;;;;;;;;;;;;;;8.00;93.89;98427.41;134117;1296;22456;-76
2023/04/01 06:32:45;;;;;;;;;;;;;;;8.01;94.09;98427.36;134329;1296;22960;-79
2023/04/01 06:35:50;;;;;;;;;;;;;;;8.00;94.22;98429.41;134165;1300;22519;-85
2023/04/01 06:38:54;;;;;;;;;;;;;;;8.04;94.32;98433.70;134358;1296;22461;-79
2023/04/01 06:42:06;;;;;;;;;;;;;;;8.09;94.49;98434.48;134139;1294;22465;-78
2023/04/01 06:46:07;;;;;;;;;;;;;;;8.09;94.26;98436.46;134079;1301;22488;-78
2023/04/01 06:49:52;;;;;;;;;;;;;;;8.10;94.21;98436.84;134165;1304;22438;-78
2023/04/01 06:54:02;;;;;;;;;;;;;;;8.11;94.45;98439.42;133370;1303;23165;-77
2023/04/01 06:57:50;;;;;;;;;;;;;;;8.13;94.57;98439.20;133546;1303;23232;-78
2023/04/01 07:00:53;;;;;;;;;;;;;;;8.16;94.62;98436.52;134071;1297;22563;-78
2023/04/01 07:04:00;;;;;;;;;;;;;;;8.18;94.67;98436.40;134123;1297;22500;-77
2023/04/01 07:07:05;;;;;;;;;;;;;;;8.19;94.88;98436.60;134058;1298;22430;-81
2023/04/01 07:10:15;;;;;;;;;;;;;;;8.21;94.99;98433.33;133980;1298;22431;-80
2023/04/01 07:14:10;;;;;;;;;;;;;;;8.25;95.04;98434.33;134194;1297;22422;-81
2023/04/01 07:17:42;;;;;;;;;;;;;;;8.27;95.17;98437.77;134128;1298;22404;-80
2023/04/01 07:20:43;;;;;;;;;;;;;;;8.28;95.12;98440.83;134148;1297;22479;-82
2023/04/01 07:23:55;;;;;;;;;;;;;;;;;;;;;
2023/04/01 07:27:11;;;;;;;;;;;;;;;8.29;94.93;98444.16;134116;1298;22434;-82
2023/04/01 07:30:46;;;;;;;;;;;;;;;;;;;;;
2023/04/01 07:34:55;;;;;;;;;;;;;;;8.33;95.53;98450.50;134115;1297;22534;-85
2023/04/01 07:38:27;;;;;;;;;;;;;;;8.39;95.58;98447.14;133257;1310;22479;-86
2023/04/01 07:42:26;;;;;;;;;;;;;;;;;;;;;
2023/04/01 07:46:26;;;;;;;;;;;;;;;;;;;;;
2023/04/01 07:51:04;;;;;;;;;;;;;;;;;;;;;
2023/04/01 07:54:29;;;;;;;;;;;;;;;8.65;96.06;98449.95;133839;1301;22429;-87
2023/04/01 07:57:32;;;;;;;;;;;;;;;8.65;95.90;98452.85;133890;1304;22504;-82
2023/04/01 08:00:40;;;;;;;;;;;;;;;8.65;96.09;98455.70;133809;1302;22495;-78
2023/04/01 08:03:58;;;;;;;;;;;;;;;8.65;95.86;98455.73;133760;1303;22459;-81
2023/04/01 08:07:06;;;;;;;;;;;;;;;8.66;95.93;98457.31;133799;1298;22449;-79
2023/04/01 08:10:23;;;;;;;;;;;;;;;8.68;95.98;98463.73;133886;1299;22464;-74
2023/04/01 08:14:32;;;;;;;;;;;;;;;;;;;;;
2023/04/01 08:21:51;;;;;;;;;;;;;;;8.86;96.42;98463.29;134025;1298;22534;-76
2023/04/01 08:24:53;;;;;;;;;;;;;;;8.92;96.37;98467.11;133964;1298;22432;-76
2023/04/01 08:28:06;;;;;;;;;;;;;;;9.01;96.50;98465.46;134162;1297;22441;-76
2023/04/01 08:31:18;;;;;;;;;;;;;;;9.07;96.34;98467.13;133892;1298;22492;-79
2023/04/01 08:34:33;;;;;;;;;;;;;;;;;;;;;
2023/04/01 08:37:45;;;;;;;;;;;;;;;9.15;96.03;98470.86;133961;1298;23307;-76
2023/04/01 08:41:05;;;;;;;;;;;;;;;9.21;95.97;98473.05;133951;1300;22948;-78
2023/04/01 08:44:40;;;;;;;;;;;;;;;9.24;95.79;98469.48;133717;1298;23565;-76
2023/04/01 08:48:00;;;;;;;;;;;;;;;;;;;;;
2023/04/01 08:51:01;;;;;;;;;;;;;;;9.29;95.79;98467.80;134081;1300;22481;-76
2023/04/01 08:54:29;;;;;;;;;;;;;;;9.32;95.63;98469.90;133972;1297;22461;-77
2023/04/01 08:57:33;;;;;;;;;;;;;;;9.40;95.95;98465.82;134128;1297;23119;-77
2023/04/01 09:01:17;;;;;;;;;;;;;;;9.44;95.59;98470.97;134167;1295;22562;-79
2023/04/01 09:04:30;;;;;;;;;;;;;;;9.48;95.50;98471.67;134194;1295;23325;-78
2023/04/01 09:07:34;;;;;;;;;;;;;;;9.56;95.57;98474.70;134090;1297;23280;-80
2023/04/01 09:10:51;;;;;;;;;;;;;;;9.60;95.40;98476.63;133927;1300;23183;-76
2023/04/01 09:14:28;;;;;;;;;;;;;;;9.65;95.33;98479.70;134134;1297;22437;-77
2023/04/01 09:18:17;;;;;;;;;;;;;;;9.66;95.14;98479.01;134035;1298;22474;-78
2023/04/01 09:21:21;;;;;;;;;;;;;;;9.66;94.82;98480.59;134117;1299;22577;-78
2023/04/01 09:24:55;;;;;;;;;;;;;;;9.66;94.56;98485.60;134069;1300;22450;-77
2023/04/01 09:28:08;;;;;;;;;;;;;;;9.66;94.63;98491.02;133965;1297;23160;-77
2023/04/01 09:31:19;;;;;;;;;;;;;;;9.65;94.73;98493.47;134119;1297;23241;-77
2023/04/01 09:34:44;;;;;;;;;;;;;;;9.62;94.90;98495.13;134249;1297;22415;-79
2023/04/01 09:38:12;;;;;;;;;;;;;;;9.56;94.82;98500.41;134296;1297;22471;-77
2023/04/01 09:41:39;;;;;;;;;;;;;;;9.53;94.90;98507.57;134187;1298;22445;-76
2023/04/01 09:44:54;;;;;;;;;;;;;;;9.52;94.93;98506.95;134052;1298;22479;-81
2023/04/01 09:48:14;;;;;;;;;;;;;;;9.51;94.55;98510.08;134332;1297;22516;-82
2023/04/01 09:51:36;;;;;;;;;;;;;;;9.51;94.50;98512.05;134087;1303;22434;-75
2023/04/01 09:54:40;;;;;;;;;;;;;;;9.49;94.46;98512.48;134107;1296;22459;-77
2023/04/01 09:58:07;;;;;;;;;;;;;;;9.48;94.29;98513.29;134212;1298;23235;-75
2023/04/01 10:01:43;;;;;;;;;;;;;;;9.50;94.34;98517.38;133945;1298;22513;-75
2023/04/01 10:05:06;;;;;;;;;;;;;;;9.53;94.46;98521.13;134185;1297;22487;-77
2023/04/01 10:08:51;;;;;;;;;;;;;;;9.58;94.58;98526.19;134292;1297;24015;-75
2023/04/01 10:12:23;;;;;;;;;;;;;;;;;;;;;
2023/04/01 10:15:50;;;;;;;;;;;;;;;;;;;;;
2023/04/01 10:19:42;;;;;;;;;;;;;;;9.68;94.41;98531.80;134271;1296;22475;-75
2023/04/01 10:23:25;;;;;;;;;;;;;;;9.69;94.54;98533.52;134146;1297;23545;-76
2023/04/01 10:27:08;;;;;;;;;;;;;;;9.71;94.42;98531.13;134145;1298;23321;-76
2023/04/01 10:30:56;;;;;;;;;;;;;;;9.73;94.33;98531.63;133623;1303;23115;-76
2023/04/01 10:34:42;;;;;;;;;;;;;;;9.67;94.00;98532.59;134109;1297;22564;-76
2023/04/01 10:38:29;;;;;;;;;;;;;;;9.63;94.00;98539.45;133318;1303;22466;-76
2023/04/01 10:42:04;;;;;;;;;;;;;;;9.60;94.00;98544.13;133368;1304;22526;-75
2023/04/01 10:46:00;;;;;;;;;;;;;;;;;;;;;
2023/04/01 10:49:39;;;;;;;;;;;;;;;9.52;94.37;98551.84;134096;1296;23265;-76
2023/04/01 10:53:06;;;;;;;;;;;;;;;9.52;94.51;98549.89;133396;1303;22480;-78
2023/04/01 10:56:53;;;;;;;;;;;;;;;9.54;94.53;98548.79;134324;1298;22493;-75
2023/04/01 11:01:00;;;;;;;;;;;;;;;9.55;94.71;98549.95;134310;1297;23048;-75
2023/04/01 11:08:41;;;;;;;;;;;;;;;9.81;95.17;98554.98;134030;1298;23215;-76
2023/04/01 11:12:15;;;;;;;;;;;;;;;;;;;;;
2023/04/01 11:15:59;;;;;;;;;;;;;;;10.07;95.31;98553.34;134039;1298;22491;-81
2023/04/01 11:27:20;;;;;;;;;;;;;;;10.06;94.69;98561.53;134132;1297;22512;-76
2023/04/01 11:30:59;;;;;;;;;;;;;;;;;;;;;
2023/04/01 11:34:57;;;;;;;;;;;;;;;;;;;;;
2023/04/01 11:38:37;;;;;;;;;;;;;;;;;;;;;
2023/04/01 11:42:30;;;;;;;;;;;;;;;;;;;;;
2023/04/01 11:46:10;;;;;;;;;;;;;;;10.69;94.31;98561.59;134323;1297;22465;-75
2023/04/01 11:49:32;;;;;;;;;;;;;;;10.73;93.77;98566.21;134104;1298;22427;-75
2023/04/01 11:53:27;;;;;;;;;;;;;;;10.68;93.33;98567.64;134141;1299;22432;-75
2023/04/01 11:56:30;;;;;;;;;;;;;;;10.71;93.64;98574.32;134296;1296;22416;-78
2023/04/01 11:59:49;;;;;;;;;;;;;;;10.70;93.35;98572.56;134346;1297;22457;-80
2023/04/01 12:03:30;;;;;;;;;;;;;;;;;;;;;
2023/04/01 12:06:58;;;;;;;;;;;;;;;10.63;92.95;98584.61;134307;1298;22448;-75
2023/04/01 12:10:32;;;;;;;;;;;;;;;10.63;93.00;98588.05;134347;1301;24463;-77
2023/04/01 12:14:05;;;;;;;;;;;;;;;10.64;93.05;98589.05;133929;1297;22474;-74
2023/04/01 12:17:06;;;;;;;;;;;;;;;10.64;92.98;98590.33;134160;1298;22471;-75
2023/04/01 12:20:12;;;;;;;;;;;;;;;10.65;93.13;98589.63;134316;1298;22473;-77
2023/04/01 12:23:47;;;;;;;;;;;;;;;;;;;;;
2023/04/01 12:27:08;;;;;;;;;;;;;;;10.70;92.89;98585.67;134363;1298;22432;-76
2023/04/01 12:30:27;;;;;;;;;;;;;;;10.76;92.97;98583.95;134346;1296;22489;-75
2023/04/01 12:33:34;;;;;;;;;;;;;;;10.84;93.27;98584.27;134183;1300;22430;-74
2023/04/01 12:36:50;;;;;;;;;;;;;;;10.95;93.30;98586.30;134300;1298;23333;-74
2023/04/01 12:40:05;;;;;;;;;;;;;;;11.04;93.11;98588.65;134289;1297;22445;-75
2023/04/01 12:43:28;;;;;;;;;;;;;;;11.12;93.08;98593.42;134286;1298;23583;-74
2023/04/01 12:46:39;;;;;;;;;;;;;;;11.20;93.19;98592.02;134262;1296;22452;-75
2023/04/01 12:53:34;;;;;;;;;;;;;;;11.27;92.34;98597.40;134280;1297;23126;-76
2023/04/01 12:56:38;;;;;;;;;;;;;;;11.26;92.07;98603.36;134267;1296;22441;-75
2023/04/01 13:00:08;;;;;;;;;;;;;;;11.24;91.99;98602.30;134250;1298;22443;-78
2023/04/01 13:03:34;;;;;;;;;;;;;;;11.25;91.65;98606.59;134166;1297;22476;-74
2023/04/01 13:06:43;;;;;;;;;;;;;;;11.29;91.64;98608.05;134342;1297;22512;-75
2023/04/01 13:09:50;;;;;;;;;;;;;;;11.36;91.58;98607.78;134348;1298;22446;-75
2023/04/01 13:13:08;;;;;;;;;;;;;;;11.41;91.34;98609.68;134316;1297;23126;-82
2023/04/01 13:16:23;;;;;;;;;;;;;;;11.50;90.85;98612.93;134282;1295;22436;-75
2023/04/01 13:19:24;;;;;;;;;;;;;;;11.57;90.65;98615.61;133991;1298;23296;-76
2023/04/01 13:22:46;;;;;;;;;;;;;;;11.65;90.42;98608.67;134352;1296;22440;-77
2023/04/01 13:29:52;;;;;;;;;;;;;;;11.79;89.03;98610.51;134157;1298;22480;-76
2023/04/01 13:32:58;;;;;;;;;;;;;;;11.81;89.04;98613.77;134304;1297;22471;-75
2023/04/01 13:36:14;;;;;;;;;;;;;;;11.87;89.00;98615.59;134259;1298;22453;-74
2023/04/01 13:39:15;;;;;;;;;;;;;;;11.90;87.97;98619.71;134282;1297;22528;-77
2023/04/01 13:42:44;;;;;;;;;;;;;;;11.86;87.47;98618.91;134282;1297;23163;-74
2023/04/01 13:46:03;;;;;;;;;;;;;;;11.83;87.50;98619.55;134285;1298;22471;-72
2023/04/01 13:49:31;;;;;;;;;;;;;;;11.82;87.35;98627.00;134296;1296;23330;-75
2023/04/01 13:52:32;;;;;;;;;;;;;;;11.85;87.01;98634.25;134287;1292;22521;-72
2023/04/01 13:55:41;;;;;;;;;;;;;;;11.82;87.13;98638.48;134244;1298;22455;-75
2023/04/01 13:58:54;;;;;;;;;;;;;;;11.81;87.13;98639.48;134287;1298;23141;-74
2023/04/01 14:02:23;;;;;;;;;;;;;;;;;;;;;
2023/04/01 14:05:56;;;;;;;;;;;;;;;11.67;86.99;98653.79;134294;1298;22653;-77
2023/04/01 14:09:30;;;;;;;;;;;;;;;;;;;;;
2023/04/01 14:13:06;;;;;;;;;;;;;;;11.49;87.12;98655.19;134307;1297;22495;-76
2023/04/01 14:16:23;;;;;;;;;;;;;;;11.42;87.05;98653.85;134255;1297;23318;-75
2023/04/01 14:19:41;;;;;;;;;;;;;;;11.43;87.36;98656.88;134321;1298;22435;-74
2023/04/01 14:22:42;;;;;;;;;;;;;;;11.48;87.42;98661.52;134283;1297;22462;-75
2023/04/01 14:25:55;;;;;;;;;;;;;;;11.49;87.03;98661.77;134268;1297;22519;-74
2023/04/01 14:29:32;;;;;;;;;;;;;;;11.45;86.78;98665.77;129122;1304;544124;-75
2023/04/01 14:33:10;;;;;;;;;;;;;;;;;;;;;
2023/04/01 14:36:17;;;;;;;;;;;;;;;11.26;86.29;98678.27;133005;1308;22508;-75
2023/04/01 14:39:34;;;;;;;;;;;;;;;11.09;85.14;98681.23;133115;1306;23216;-75
2023/04/01 14:42:59;;;;;;;;;;;;;;;10.84;85.03;98691.84;129131;1304;5384390;-75
2023/04/01 14:46:09;;;;;;;;;;;;;;;10.62;85.56;98701.35;133226;1304;23225;-76
2023/04/01 14:49:42;;;;;;;;;;;;;;;10.46;86.03;98703.94;133769;1300;23350;-78
2023/04/01 14:52:52;;;;;;;;;;;;;;;10.25;86.54;98710.38;133775;1301;22444;-76
2023/04/01 14:55:59;;;;;;;;;;;;;;;10.10;86.75;98708.39;133747;1301;22482;-78
2023/04/01 14:59:00;;;;;;;;;;;;;;;10.06;87.05;98710.63;133608;1301;22596;-75
2023/04/01 15:02:19;;;;;;;;;;;;;;;10.04;87.31;98713.80;133768;1300;22468;-78
2023/04/01 15:05:39;;;;;;;;;;;;;;;10.01;87.50;98712.08;133798;1301;23134;-76
2023/04/01 15:08:45;;;;;;;;;;;;;;;9.98;87.77;98714.18;133443;1301;23346;-77
2023/04/01 15:12:06;;;;;;;;;;;;;;;9.93;88.01;98721.86;133779;1301;22518;-80
2023/04/01 15:15:07;;;;;;;;;;;;;;;9.87;88.13;98724.52;133758;1300;23150;-73
2023/04/01 15:18:16;;;;;;;;;;;;;;;9.83;88.18;98727.14;133775;1301;22494;-77
2023/04/01 15:21:43;;;;;;;;;;;;;;;9.80;88.44;98725.38;133770;1300;23241;-76
2023/04/01 15:25:05;;;;;;;;;;;;;;;9.79;88.69;98722.27;133818;1301;23233;-76
2023/04/01 15:28:09;;;;;;;;;;;;;;;9.77;89.03;98732.90;133789;1301;22487;-77
2023/04/01 15:31:21;;;;;;;;;;;;;;;9.76;89.12;98742.06;133810;1300;22458;-76
2023/04/01 15:34:40;;;;;;;;;;;;;;;9.74;89.80;98743.52;133777;1287;22480;-75
2023/04/01 15:38:01;;;;;;;;;;;;;;;9.69;89.98;98739.82;133785;1300;22440;-76
2023/04/01 15:41:15;;;;;;;;;;;;;;;9.68;90.01;98741.36;133728;1301;22468;-76
2023/04/01 15:44:42;;;;;;;;;;;;;;;9.70;90.25;98740.00;133682;1302;22527;-75
2023/04/01 15:47:58;;;;;;;;;;;;;;;9.71;90.39;98739.10;133694;1300;22456;-76
2023/04/01 15:51:02;;;;;;;;;;;;;;;9.75;90.38;98744.02;133715;1300;22471;-76
2023/04/01 15:54:12;;;;;;;;;;;;;;;9.77;90.71;98750.07;133694;1300;22428;-75
2023/04/01 15:57:23;;;;;;;;;;;;;;;9.79;90.79;98757.00;133676;1300;23135;-75
2023/04/01 16:00:30;;;;;;;;;;;;;;;9.81;91.00;98759.22;133695;1300;22435;-75
2023/04/01 16:03:40;;;;;;;;;;;;;;;9.83;90.82;98764.64;133547;1303;22443;-75
2023/04/01 16:06:59;;;;;;;;;;;;;;;9.85;91.11;98767.60;133582;1300;22472;-76
2023/04/01 16:10:28;;;;;;;;;;;;;;;9.84;91.00;98765.75;133541;1301;22446;-76
2023/04/01 16:13:44;;;;;;;;;;;;;;;9.83;90.85;98767.27;133656;1300;22495;-76
2023/04/01 16:17:25;;;;;;;;;;;;;;;9.83;90.93;98767.30;133722;1300;23114;-75
2023/04/01 16:20:42;;;;;;;;;;;;;;;9.78;90.89;98762.59;133704;1298;22480;-75
2023/04/01 16:23:48;;;;;;;;;;;;;;;9.70;90.85;98764.07;133692;1300;22476;-75
2023/04/01 16:26:54;;;;;;;;;;;;;;;9.68;91.23;98772.61;133734;1301;22474;-75
2023/04/01 16:30:34;;;;;;;;;;;;;;;9.64;91.16;98772.15;133734;1301;22486;-75
2023/04/01 16:33:49;;;;;;;;;;;;;;;9.57;91.24;98780.86;133733;1300;22472;-75
2023/04/01 16:36:50;;;;;;;;;;;;;;;9.60;91.47;98781.53;133713;1300;22458;-74
2023/04/01 16:40:19;;;;;;;;;;;;;;;;;;;;;
2023/04/01 16:43:46;;;;;;;;;;;;;;;9.46;91.55;98782.39;133683;1300;22466;-75
2023/04/01 16:47:21;;;;;;;;;;;;;;;;;;;;;
2023/04/01 16:51:12;;;;;;;;;;;;;;;9.21;92.50;98793.03;133686;1300;22550;-75
2023/04/01 16:54:21;;;;;;;;;;;;;;;9.10;93.09;98797.57;133668;1300;22435;-76
2023/04/01 16:57:29;;;;;;;;;;;;;;;9.03;93.43;98801.73;133732;1300;23156;-76
2023/04/01 17:00:47;;;;;;;;;;;;;;;8.95;94.41;98805.27;133550;1301;23228;-76
2023/04/01 17:03:52;;;;;;;;;;;;;;;8.88;94.78;98813.38;133712;1300;22512;-75
2023/04/01 17:07:00;;;;;;;;;;;;;;;8.83;94.70;98820.02;133711;1300;22505;-75
2023/04/01 17:10:15;;;;;;;;;;;;;;;;;;;;;
2023/04/01 17:13:41;;;;;;;;;;;;;;;8.75;94.47;98838.23;133752;1297;22455;-75
2023/04/01 17:16:56;;;;;;;;;;;;;;;8.75;94.64;98840.83;133747;1300;23258;-74
2023/04/01 17:20:09;;;;;;;;;;;;;;;8.77;94.48;98849.96;133769;1300;23281;-75
2023/04/01 17:23:44;;;;;;;;;;;;;;;8.79;94.45;98856.82;133742;1300;23193;-75
2023/04/01 17:27:04;;;;;;;;;;;;;;;8.80;94.43;98866.07;133698;1300;22477;-75
2023/04/01 17:30:17;;;;;;;;;;;;;;;8.74;94.08;98870.48;133730;1301;22458;-75
2023/04/01 17:33:38;;;;;;;;;;;;;;;8.70;94.01;98878.70;133677;1301;22510;-75
2023/04/01 17:36:56;;;;;;;;;;;;;;;8.62;93.89;98882.41;133730;1307;22466;-74
2023/04/01 17:40:00;;;;;;;;;;;;;;;8.52;94.12;98885.06;133563;1300;22554;-76
2023/04/01 17:43:10;;;;;;;;;;;;;;;8.42;94.26;98887.48;133752;1300;22440;-76
2023/04/01 17:50:02;;;;;;;;;;;;;;;8.28;94.57;98902.90;133606;1293;23150;-76
2023/04/01 17:53:17;;;;;;;;;;;;;;;8.24;94.84;98910.94;133529;1301;22626;-78
2023/04/01 17:56:38;;;;;;;;;;;;;;;8.20;95.19;98915.60;133553;1300;22466;-79
2023/04/01 17:59:53;;;;;;;;;;;;;;;8.15;95.44;98919.71;133571;1300;22472;-78
2023/04/01 18:03:13;;;;;;;;;;;;;;;8.11;95.73;98922.54;133666;1300;23178;-78
2023/04/01 18:06:47;;;;;;;;;;;;;;;8.05;95.80;98928.60;133713;1301;23560;-78
2023/04/01 18:10:00;;;;;;;;;;;;;;;8.02;96.00;98930.23;133532;1301;23171;-78
2023/04/01 18:13:13;;;;;;;;;;;;;;;7.99;96.30;98934.14;133720;1300;22476;-78
2023/04/01 18:16:28;;;;;;;;;;;;;;;7.95;96.44;98940.41;133734;1300;22516;-78
2023/04/01 18:19:59;;;;;;;;;;;;;;;7.91;96.59;98945.42;133716;1301;22420;-75